createdAt,value
2018-02-24T14:28:46.738Z,99653.74
2018-02-24T14:31:14.158Z,99647.25
2018-02-24T14:33:41.578Z,99647.53
2018-02-24T14:36:09.001Z,99654.30
2018-02-24T14:38:36.435Z,99656.22
2018-02-24T14:41:03.883Z,99666.20
2018-02-24T14:43:31.316Z,99658.33
2018-02-24T14:45:58.725Z,99664.50
2018-02-24T14:48:26.838Z,99668.77
2018-02-24T14:50:54.262Z,99661.66
2018-02-24T14:53:21.694Z,99670.94
2018-02-24T14:55:49.109Z,99673.87
2018-02-24T14:58:16.543Z,99676.89
2018-02-24T15:00:44.104Z,99671.42
2018-02-24T15:03:11.525Z,99668.97
2018-02-24T15:05:38.942Z,99684.36
2018-02-24T15:08:06.399Z,99686.99
2018-02-24T15:10:33.878Z,99695.55
2018-02-24T15:13:01.297Z,99689.22
2018-02-24T15:15:28.719Z,99691.40
2018-02-24T15:17:56.154Z,99685.11
2018-02-24T15:20:23.586Z,99685.98
2018-02-24T15:22:51.060Z,99698.59
2018-02-24T15:25:18.543Z,99699.88
2018-02-24T15:27:46.091Z,99699.86
2018-02-24T15:30:13.584Z,99696.87
2018-02-24T15:32:41.068Z,99708.05
2018-02-24T15:35:08.588Z,99696.59
2018-02-24T15:37:36.051Z,99700.22
2018-02-24T15:40:03.519Z,99705.93
2018-02-24T15:42:31.018Z,99711.99
2018-02-24T15:44:58.523Z,99708.87
2018-02-24T15:47:26.002Z,99710.29
2018-02-24T15:49:53.491Z,99706.92
2018-02-24T15:52:20.988Z,99704.19
2018-02-24T15:54:48.472Z,99707.91
2018-02-24T15:57:15.943Z,99713.10
2018-02-24T15:59:43.396Z,99713.73
2018-02-24T16:02:10.891Z,99721.48
2018-02-24T16:04:38.433Z,99712.44
2018-02-24T16:07:12.230Z,99716.81
2018-02-24T16:09:45.855Z,99719.23
2018-02-24T16:12:19.685Z,99724.61
2018-02-24T16:14:53.400Z,99719.61
2018-02-24T16:17:27.232Z,99713.48
2018-02-24T16:20:01.000Z,99718.23
2018-02-24T16:22:34.689Z,99725.27
2018-02-24T16:25:08.482Z,99725.90
2018-02-24T16:27:42.327Z,99723.08
2018-02-24T16:30:16.007Z,99728.67
2018-02-24T16:32:49.695Z,99725.44
2018-02-24T16:35:23.533Z,99727.46
2018-02-24T16:37:57.182Z,99727.57
2018-02-24T16:40:30.911Z,99731.20
2018-02-24T16:43:04.789Z,99737.45
2018-02-24T16:45:38.486Z,99736.58
2018-02-24T16:48:12.302Z,99737.79
2018-02-24T16:50:46.101Z,99752.87
2018-02-24T16:53:19.760Z,99744.92
2018-02-24T16:55:53.573Z,99743.91
2018-02-24T16:58:27.381Z,99745.57
2018-02-24T17:01:01.170Z,99735.77
2018-02-24T17:03:34.992Z,99747.17
2018-02-24T17:06:08.871Z,99747.50
2018-02-24T17:08:42.636Z,99733.10
2018-02-24T17:11:16.350Z,99754.06
2018-02-24T17:13:50.082Z,99746.70
2018-02-24T17:16:23.877Z,99754.45
2018-02-24T17:18:57.561Z,99765.31
2018-02-24T17:21:31.374Z,99758.44
2018-02-24T17:24:05.146Z,99762.13
2018-02-24T17:26:38.920Z,99766.03
2018-02-24T17:29:12.604Z,99767.83
2018-02-24T17:31:46.343Z,99766.97
2018-02-24T17:34:20.244Z,99776.55
2018-02-24T17:36:54.141Z,99771.25
2018-02-24T17:39:27.891Z,99777.67
2018-02-24T17:42:01.612Z,99781.73
2018-02-24T17:44:35.362Z,99771.77
2018-02-24T17:47:19.453Z,99782.46
2018-02-24T17:49:53.266Z,99776.66
2018-02-24T17:52:26.993Z,99786.00
2018-02-24T17:55:00.987Z,99786.61
2018-02-24T17:57:34.682Z,99782.95
2018-02-24T18:00:08.543Z,99787.70
2018-02-24T18:02:42.477Z,99782.36
2018-02-24T18:05:16.215Z,99793.86
2018-02-24T18:07:49.946Z,99791.62
2018-02-24T18:10:23.870Z,99791.86
2018-02-24T18:12:57.598Z,99792.07
2018-02-24T18:15:31.581Z,99796.24
2018-02-24T18:18:05.469Z,99796.46
2018-02-24T18:20:39.234Z,99793.91
2018-02-24T18:23:12.793Z,99794.92
2018-02-24T18:25:46.486Z,99798.00
2018-02-24T18:28:20.349Z,99795.15
2018-02-24T18:30:54.143Z,99803.25
2018-02-24T18:33:27.695Z,99796.31
2018-02-24T18:36:01.652Z,99806.14
2018-02-24T18:38:35.426Z,99805.02
2018-02-24T18:41:09.435Z,99803.39
2018-02-24T18:43:43.291Z,99807.28
2018-02-24T18:46:16.994Z,99805.45
2018-02-24T18:48:50.633Z,99812.39
2018-02-24T18:51:24.372Z,99801.84
2018-02-24T18:53:58.206Z,99805.94
2018-02-24T18:56:31.958Z,99812.70
2018-02-24T18:59:05.751Z,99811.68
2018-02-24T19:01:39.623Z,99812.19
2018-02-24T19:04:13.450Z,99805.66
2018-02-24T19:06:47.209Z,99809.53
2018-02-24T19:09:21.043Z,99811.69
2018-02-24T19:11:55.019Z,99815.69
2018-02-24T19:14:28.748Z,99813.94
2018-02-24T19:17:02.617Z,99823.06
2018-02-24T19:19:36.319Z,99821.43
2018-02-24T19:22:10.207Z,99825.11
2018-02-24T19:24:43.899Z,99824.30
2018-02-24T19:27:17.721Z,99829.93
2018-02-24T19:29:51.531Z,99824.91
2018-02-24T19:32:25.358Z,99831.86
2018-02-24T19:34:59.158Z,99829.30
2018-02-24T19:37:32.978Z,99829.91
2018-02-24T19:40:06.640Z,99833.81
2018-02-24T19:42:40.417Z,99834.11
2018-02-24T19:45:14.058Z,99833.30
2018-02-24T19:47:47.802Z,99830.74
2018-02-24T19:50:21.696Z,99829.83
2018-02-24T19:52:55.611Z,99835.77
2018-02-24T19:55:29.438Z,99833.91
2018-02-24T19:58:03.253Z,99836.36
2018-02-24T20:00:36.976Z,99839.63
2018-02-24T20:03:10.673Z,99836.66
2018-02-24T20:05:44.578Z,99843.73
2018-02-24T20:08:18.305Z,99843.42
2018-02-24T20:10:51.997Z,99840.55
2018-02-24T20:13:25.858Z,99840.45
2018-02-24T20:15:59.518Z,99847.20
2018-02-24T20:18:33.222Z,99847.10
2018-02-24T20:21:06.895Z,99851.19
2018-02-24T20:23:40.619Z,99846.39
2018-02-24T20:26:14.347Z,99847.52
2018-02-24T20:28:48.040Z,99846.35
2018-02-24T20:31:21.794Z,99851.77
2018-02-24T20:33:55.525Z,99850.03
2018-02-24T20:36:29.242Z,99856.47
2018-02-24T20:39:03.049Z,99851.34
2018-02-24T20:41:36.678Z,99848.37
2018-02-24T20:44:10.576Z,99849.63
2018-02-24T20:46:44.286Z,99847.87
2018-02-24T20:49:17.973Z,99851.23
2018-02-24T20:51:51.665Z,99861.05
2018-02-24T20:54:25.459Z,99869.54
2018-02-24T20:56:59.343Z,99863.20
2018-02-24T20:59:33.622Z,99877.43
2018-02-24T21:02:07.424Z,99876.39
2018-02-24T21:04:41.179Z,99875.27
2018-02-24T21:07:14.883Z,99870.41
2018-02-24T21:09:48.681Z,99881.42
2018-02-24T21:12:22.354Z,99885.64
2018-02-24T21:14:56.249Z,99885.34
2018-02-24T21:17:30.015Z,99884.31
2018-02-24T21:20:03.886Z,99890.72
2018-02-24T21:22:37.646Z,99891.44
2018-02-24T21:25:11.370Z,99884.15
2018-02-24T21:27:45.194Z,99889.48
2018-02-24T21:30:18.913Z,99886.81
2018-02-24T21:32:52.558Z,99884.76
2018-02-24T21:35:26.309Z,99880.28
2018-02-24T21:37:59.992Z,99881.70
2018-02-24T21:40:34.520Z,99889.47
2018-02-24T21:43:09.280Z,99893.80
2018-02-24T21:45:42.967Z,99899.80
2018-02-24T21:48:16.722Z,99899.18
2018-02-24T21:50:50.533Z,99899.27
2018-02-24T21:53:24.254Z,99892.52
2018-02-24T21:55:57.999Z,99896.91
2018-02-24T21:58:31.823Z,99900.97
2018-02-24T22:01:05.632Z,99896.81
2018-02-24T22:03:39.537Z,99900.28
2018-02-24T22:06:13.384Z,99896.38
2018-02-24T22:08:47.078Z,99901.80
2018-02-24T22:11:20.811Z,99899.43
2018-02-24T22:13:54.506Z,99888.23
2018-02-24T22:16:28.263Z,99891.08
2018-02-24T22:19:02.222Z,99895.73
2018-02-24T22:21:36.046Z,99890.16
2018-02-24T22:24:09.756Z,99905.36
2018-02-24T22:26:43.715Z,99905.52
2018-02-24T22:29:17.544Z,99908.31
2018-02-24T22:31:51.247Z,99911.95
2018-02-24T22:34:25.078Z,99908.52
2018-02-24T22:36:58.775Z,99912.37
2018-02-24T22:39:32.450Z,99921.79
2018-02-24T22:42:06.333Z,99919.78
2018-02-24T22:44:40.213Z,99920.27
2018-02-24T22:47:14.182Z,99927.15
2018-02-24T22:49:48.021Z,99925.58
2018-02-24T22:52:21.915Z,99919.34
2018-02-24T22:54:55.759Z,99921.25
2018-02-24T22:57:29.512Z,99912.61
2018-02-24T23:00:03.389Z,99914.81
2018-02-24T23:02:37.266Z,99917.37
2018-02-24T23:05:11.176Z,99913.30
2018-02-24T23:07:45.078Z,99920.65
2018-02-24T23:10:18.798Z,99919.42
2018-02-24T23:12:52.731Z,99922.63
2018-02-24T23:15:26.587Z,99912.11
2018-02-24T23:18:00.374Z,99913.53
2018-02-24T23:20:34.431Z,99910.40
2018-02-24T23:23:08.338Z,99915.48
2018-02-24T23:25:42.084Z,99916.48
2018-02-24T23:28:15.812Z,99924.44
2018-02-24T23:30:49.716Z,99914.86
2018-02-24T23:33:23.502Z,99920.14
2018-02-24T23:35:57.212Z,99919.49
2018-02-24T23:38:31.180Z,99912.25
2018-02-24T23:41:05.016Z,99915.28
2018-02-24T23:43:38.923Z,99909.76
2018-02-24T23:46:12.830Z,99915.01
2018-02-24T23:48:46.592Z,99911.13
2018-02-24T23:51:20.362Z,99906.16
2018-02-24T23:53:54.251Z,99910.40
2018-02-24T23:56:27.976Z,99904.95
2018-02-24T23:59:01.810Z,99911.92
